sensor_id;sensor_type;location;lat;lon;timestamp;temperature;humidity
52381;DHT22;38310;52.796;6.942;2023-06-04T00:00:48;10.60;99.90
52381;DHT22;38310;52.796;6.942;2023-06-04T00:03:13;10.60;99.90
52381;DHT22;38310;52.796;6.942;2023-06-04T00:05:39;10.50;99.90
52381;DHT22;38310;52.796;6.942;2023-06-04T00:08:05;10.50;99.90
52381;DHT22;38310;52.796;6.942;2023-06-04T00:10:31;10.50;99.90
52381;DHT22;38310;52.796;6.942;2023-06-04T00:12:59;10.50;99.90
52381;DHT22;38310;52.796;6.942;2023-06-04T00:15:25;10.50;99.90
52381;DHT22;38310;52.796;6.942;2023-06-04T00:17:50;10.50;99.90
52381;DHT22;38310;52.796;6.942;2023-06-04T00:20:17;10.40;99.90
52381;DHT22;38310;52.796;6.942;2023-06-04T00:22:43;10.40;99.90
52381;DHT22;38310;52.796;6.942;2023-06-04T00:25:09;10.40;99.90
52381;DHT22;38310;52.796;6.942;2023-06-04T00:27:35;10.30;99.90
52381;DHT22;38310;52.796;6.942;2023-06-04T00:30:01;10.30;99.90
52381;DHT22;38310;52.796;6.942;2023-06-04T00:32:27;10.30;99.90
52381;DHT22;38310;52.796;6.942;2023-06-04T00:34:54;10.30;99.90
52381;DHT22;38310;52.796;6.942;2023-06-04T00:37:24;10.30;99.90
52381;DHT22;38310;52.796;6.942;2023-06-04T00:39:50;10.30;99.90
52381;DHT22;38310;52.796;6.942;2023-06-04T00:42:17;10.30;99.90
52381;DHT22;38310;52.796;6.942;2023-06-04T00:44:43;10.20;99.90
52381;DHT22;38310;52.796;6.942;2023-06-04T00:47:15;10.20;99.90
52381;DHT22;38310;52.796;6.942;2023-06-04T00:49:41;10.20;99.90
52381;DHT22;38310;52.796;6.942;2023-06-04T00:52:12;10.20;99.90
52381;DHT22;38310;52.796;6.942;2023-06-04T00:54:38;9.10;99.90
52381;DHT22;38310;52.796;6.942;2023-06-04T00:57:05;10.10;99.90
52381;DHT22;38310;52.796;6.942;2023-06-04T00:59:32;10.10;99.90
52381;DHT22;38310;52.796;6.942;2023-06-04T01:02:17;10.10;99.90
52381;DHT22;38310;52.796;6.942;2023-06-04T01:08:02;10.00;99.90
52381;DHT22;38310;52.796;6.942;2023-06-04T01:10:28;10.00;99.90
52381;DHT22;38310;52.796;6.942;2023-06-04T01:12:54;10.00;99.90
52381;DHT22;38310;52.796;6.942;2023-06-04T01:15:20;9.90;99.90
52381;DHT22;38310;52.796;6.942;2023-06-04T01:17:49;10.00;99.90
52381;DHT22;38310;52.796;6.942;2023-06-04T01:20:42;9.90;99.90
52381;DHT22;38310;52.796;6.942;2023-06-04T01:23:46;9.80;99.90
52381;DHT22;38310;52.796;6.942;2023-06-04T01:26:12;9.90;99.90
52381;DHT22;38310;52.796;6.942;2023-06-04T01:28:39;9.80;99.90
52381;DHT22;38310;52.796;6.942;2023-06-04T01:31:06;9.80;99.90
52381;DHT22;38310;52.796;6.942;2023-06-04T01:33:35;9.80;99.90
52381;DHT22;38310;52.796;6.942;2023-06-04T01:36:01;9.70;99.90
52381;DHT22;38310;52.796;6.942;2023-06-04T01:38:27;9.70;99.90
52381;DHT22;38310;52.796;6.942;2023-06-04T01:40:53;9.70;99.90
52381;DHT22;38310;52.796;6.942;2023-06-04T01:43:27;9.70;99.90
52381;DHT22;38310;52.796;6.942;2023-06-04T01:45:53;9.70;99.90
52381;DHT22;38310;52.796;6.942;2023-06-04T01:48:19;9.60;99.90
52381;DHT22;38310;52.796;6.942;2023-06-04T01:50:45;9.60;99.90
52381;DHT22;38310;52.796;6.942;2023-06-04T01:53:11;9.60;99.90
52381;DHT22;38310;52.796;6.942;2023-06-04T01:55:36;9.60;99.90
52381;DHT22;38310;52.796;6.942;2023-06-04T01:58:03;9.50;99.90
52381;DHT22;38310;52.796;6.942;2023-06-04T02:00:29;9.60;99.90
52381;DHT22;38310;52.796;6.942;2023-06-04T02:02:55;9.50;99.90
52381;DHT22;38310;52.796;6.942;2023-06-04T02:05:21;9.50;99.90
52381;DHT22;38310;52.796;6.942;2023-06-04T02:07:47;9.50;99.90
52381;DHT22;38310;52.796;6.942;2023-06-04T02:10:17;9.50;99.90
52381;DHT22;38310;52.796;6.942;2023-06-04T02:12:54;9.50;99.90
52381;DHT22;38310;52.796;6.942;2023-06-04T02:15:22;9.50;99.90
52381;DHT22;38310;52.796;6.942;2023-06-04T02:17:48;9.40;99.90
52381;DHT22;38310;52.796;6.942;2023-06-04T02:20:16;9.40;99.90
52381;DHT22;38310;52.796;6.942;2023-06-04T02:22:42;9.40;99.90
52381;DHT22;38310;52.796;6.942;2023-06-04T02:25:08;9.50;99.90
52381;DHT22;38310;52.796;6.942;2023-06-04T02:27:35;9.40;99.90
52381;DHT22;38310;52.796;6.942;2023-06-04T02:30:02;9.40;99.90
52381;DHT22;38310;52.796;6.942;2023-06-04T02:32:28;9.40;99.90
52381;DHT22;38310;52.796;6.942;2023-06-04T02:34:54;9.40;99.90
52381;DHT22;38310;52.796;6.942;2023-06-04T02:37:21;9.30;99.90
52381;DHT22;38310;52.796;6.942;2023-06-04T02:39:48;9.30;99.90
52381;DHT22;38310;52.796;6.942;2023-06-04T02:42:13;9.30;99.90
52381;DHT22;38310;52.796;6.942;2023-06-04T02:44:39;9.30;99.90
52381;DHT22;38310;52.796;6.942;2023-06-04T02:47:05;9.30;99.90
52381;DHT22;38310;52.796;6.942;2023-06-04T02:49:31;9.30;99.90
52381;DHT22;38310;52.796;6.942;2023-06-04T02:51:57;9.20;99.90
52381;DHT22;38310;52.796;6.942;2023-06-04T02:54:22;9.30;99.90
52381;DHT22;38310;52.796;6.942;2023-06-04T02:56:48;9.30;99.90
52381;DHT22;38310;52.796;6.942;2023-06-04T02:59:14;9.20;99.90
52381;DHT22;38310;52.796;6.942;2023-06-04T03:01:40;9.20;99.90
52381;DHT22;38310;52.796;6.942;2023-06-04T03:04:06;9.20;99.90
52381;DHT22;38310;52.796;6.942;2023-06-04T03:06:36;9.20;99.90
52381;DHT22;38310;52.796;6.942;2023-06-04T03:09:04;9.20;99.90
52381;DHT22;38310;52.796;6.942;2023-06-04T03:11:30;9.20;99.90
52381;DHT22;38310;52.796;6.942;2023-06-04T03:13:56;9.20;99.90
52381;DHT22;38310;52.796;6.942;2023-06-04T03:16:22;9.10;99.90
52381;DHT22;38310;52.796;6.942;2023-06-04T03:18:48;9.10;99.90
52381;DHT22;38310;52.796;6.942;2023-06-04T03:21:14;9.20;99.90
52381;DHT22;38310;52.796;6.942;2023-06-04T03:23:40;9.20;99.90
52381;DHT22;38310;52.796;6.942;2023-06-04T03:26:06;9.20;99.90
52381;DHT22;38310;52.796;6.942;2023-06-04T03:28:33;9.20;99.90
52381;DHT22;38310;52.796;6.942;2023-06-04T03:30:59;9.20;99.90
52381;DHT22;38310;52.796;6.942;2023-06-04T03:33:25;9.10;99.90
52381;DHT22;38310;52.796;6.942;2023-06-04T03:35:51;9.10;99.90
52381;DHT22;38310;52.796;6.942;2023-06-04T03:38:18;9.10;99.90
52381;DHT22;38310;52.796;6.942;2023-06-04T03:40:45;9.10;99.90
52381;DHT22;38310;52.796;6.942;2023-06-04T03:43:11;9.00;99.90
52381;DHT22;38310;52.796;6.942;2023-06-04T03:45:37;9.00;99.90
52381;DHT22;38310;52.796;6.942;2023-06-04T03:48:03;9.10;99.90
52381;DHT22;38310;52.796;6.942;2023-06-04T03:50:29;9.10;99.90
52381;DHT22;38310;52.796;6.942;2023-06-04T03:52:55;9.10;99.90
52381;DHT22;38310;52.796;6.942;2023-06-04T03:55:21;9.10;99.90
52381;DHT22;38310;52.796;6.942;2023-06-04T03:57:46;9.10;99.90
52381;DHT22;38310;52.796;6.942;2023-06-04T04:00:13;9.10;99.90
52381;DHT22;38310;52.796;6.942;2023-06-04T04:02:40;9.10;99.90
52381;DHT22;38310;52.796;6.942;2023-06-04T04:05:06;9.20;99.90
52381;DHT22;38310;52.796;6.942;2023-06-04T04:07:32;9.20;99.90
52381;DHT22;38310;52.796;6.942;2023-06-04T04:09:58;9.20;99.90
52381;DHT22;38310;52.796;6.942;2023-06-04T04:12:24;9.20;99.90
52381;DHT22;38310;52.796;6.942;2023-06-04T04:14:49;9.20;99.90
52381;DHT22;38310;52.796;6.942;2023-06-04T04:17:15;9.20;99.90
52381;DHT22;38310;52.796;6.942;2023-06-04T04:19:41;9.20;99.90
52381;DHT22;38310;52.796;6.942;2023-06-04T04:22:07;9.30;99.90
52381;DHT22;38310;52.796;6.942;2023-06-04T04:24:34;9.40;99.90
52381;DHT22;38310;52.796;6.942;2023-06-04T04:27:04;9.30;99.90
52381;DHT22;38310;52.796;6.942;2023-06-04T04:29:30;9.30;99.90
52381;DHT22;38310;52.796;6.942;2023-06-04T04:31:58;9.40;99.90
52381;DHT22;38310;52.796;6.942;2023-06-04T04:34:37;9.40;99.90
52381;DHT22;38310;52.796;6.942;2023-06-04T04:37:06;9.40;99.90
52381;DHT22;38310;52.796;6.942;2023-06-04T04:39:35;9.50;99.90
52381;DHT22;38310;52.796;6.942;2023-06-04T04:42:02;9.50;99.90
52381;DHT22;38310;52.796;6.942;2023-06-04T04:44:28;9.50;99.90
52381;DHT22;38310;52.796;6.942;2023-06-04T04:46:54;9.60;99.90
52381;DHT22;38310;52.796;6.942;2023-06-04T04:49:20;9.60;99.90
52381;DHT22;38310;52.796;6.942;2023-06-04T04:51:46;9.70;99.90
52381;DHT22;38310;52.796;6.942;2023-06-04T04:54:12;9.70;99.90
52381;DHT22;38310;52.796;6.942;2023-06-04T04:56:37;9.80;99.90
52381;DHT22;38310;52.796;6.942;2023-06-04T04:59:03;9.80;99.90
52381;DHT22;38310;52.796;6.942;2023-06-04T05:01:29;9.80;99.90
52381;DHT22;38310;52.796;6.942;2023-06-04T05:03:55;9.90;99.90
52381;DHT22;38310;52.796;6.942;2023-06-04T05:06:21;10.00;99.90
52381;DHT22;38310;52.796;6.942;2023-06-04T05:08:48;10.00;99.90
52381;DHT22;38310;52.796;6.942;2023-06-04T05:11:13;10.10;99.90
52381;DHT22;38310;52.796;6.942;2023-06-04T05:13:39;10.20;99.90
52381;DHT22;38310;52.796;6.942;2023-06-04T05:16:07;10.20;99.90
52381;DHT22;38310;52.796;6.942;2023-06-04T05:18:34;10.30;99.90
52381;DHT22;38310;52.796;6.942;2023-06-04T05:21:00;10.40;99.90
52381;DHT22;38310;52.796;6.942;2023-06-04T05:23:28;10.50;99.90
52381;DHT22;38310;52.796;6.942;2023-06-04T05:26:00;10.60;99.90
52381;DHT22;38310;52.796;6.942;2023-06-04T05:28:26;10.70;99.90
52381;DHT22;38310;52.796;6.942;2023-06-04T05:30:52;10.80;99.90
52381;DHT22;38310;52.796;6.942;2023-06-04T05:33:27;10.80;99.90
52381;DHT22;38310;52.796;6.942;2023-06-04T05:35:53;10.90;99.90
52381;DHT22;38310;52.796;6.942;2023-06-04T05:38:20;11.00;99.90
52381;DHT22;38310;52.796;6.942;2023-06-04T05:40:46;11.10;99.90
52381;DHT22;38310;52.796;6.942;2023-06-04T05:43:12;11.20;99.90
52381;DHT22;38310;52.796;6.942;2023-06-04T05:45:38;11.30;99.90
52381;DHT22;38310;52.796;6.942;2023-06-04T05:48:05;11.50;99.90
52381;DHT22;38310;52.796;6.942;2023-06-04T05:50:31;11.60;99.90
52381;DHT22;38310;52.796;6.942;2023-06-04T05:52:57;11.70;99.90
52381;DHT22;38310;52.796;6.942;2023-06-04T05:55:23;11.80;99.90
52381;DHT22;38310;52.796;6.942;2023-06-04T05:57:49;11.90;99.90
52381;DHT22;38310;52.796;6.942;2023-06-04T06:00:17;12.10;99.90
52381;DHT22;38310;52.796;6.942;2023-06-04T06:02:43;12.20;99.90
52381;DHT22;38310;52.796;6.942;2023-06-04T06:05:10;12.30;99.90
52381;DHT22;38310;52.796;6.942;2023-06-04T06:07:36;12.40;99.90
52381;DHT22;38310;52.796;6.942;2023-06-04T06:10:03;12.60;99.90
52381;DHT22;38310;52.796;6.942;2023-06-04T06:12:29;12.70;99.90
52381;DHT22;38310;52.796;6.942;2023-06-04T06:14:55;12.90;99.90
52381;DHT22;38310;52.796;6.942;2023-06-04T06:17:20;12.80;99.90
52381;DHT22;38310;52.796;6.942;2023-06-04T06:19:46;13.10;99.90
52381;DHT22;38310;52.796;6.942;2023-06-04T06:22:12;13.20;99.90
52381;DHT22;38310;52.796;6.942;2023-06-04T06:24:39;14.20;99.90
52381;DHT22;38310;52.796;6.942;2023-06-04T06:27:05;13.50;99.90
52381;DHT22;38310;52.796;6.942;2023-06-04T06:29:31;13.70;99.90
52381;DHT22;38310;52.796;6.942;2023-06-04T06:31:57;13.80;99.90
52381;DHT22;38310;52.796;6.942;2023-06-04T06:34:23;13.90;99.90
52381;DHT22;38310;52.796;6.942;2023-06-04T06:36:49;14.00;99.90
52381;DHT22;38310;52.796;6.942;2023-06-04T06:39:15;14.10;99.90
52381;DHT22;38310;52.796;6.942;2023-06-04T06:41:41;14.30;99.90
52381;DHT22;38310;52.796;6.942;2023-06-04T06:44:07;14.40;99.90
52381;DHT22;38310;52.796;6.942;2023-06-04T06:46:33;14.50;99.90
52381;DHT22;38310;52.796;6.942;2023-06-04T06:48:59;14.70;99.90
52381;DHT22;38310;52.796;6.942;2023-06-04T06:51:25;14.90;99.90
52381;DHT22;38310;52.796;6.942;2023-06-04T06:53:50;15.00;99.90
52381;DHT22;38310;52.796;6.942;2023-06-04T06:56:16;15.20;99.90
52381;DHT22;38310;52.796;6.942;2023-06-04T06:58:44;15.40;99.90
52381;DHT22;38310;52.796;6.942;2023-06-04T07:01:10;15.30;99.90
52381;DHT22;38310;52.796;6.942;2023-06-04T07:03:36;15.50;99.90
52381;DHT22;38310;52.796;6.942;2023-06-04T07:06:02;15.60;99.90
52381;DHT22;38310;52.796;6.942;2023-06-04T07:08:27;15.80;99.90
52381;DHT22;38310;52.796;6.942;2023-06-04T07:10:53;15.90;99.90
52381;DHT22;38310;52.796;6.942;2023-06-04T07:13:19;16.00;99.90
52381;DHT22;38310;52.796;6.942;2023-06-04T07:15:45;16.20;99.90
52381;DHT22;38310;52.796;6.942;2023-06-04T07:18:11;16.30;99.90
52381;DHT22;38310;52.796;6.942;2023-06-04T07:20:37;16.40;99.90
52381;DHT22;38310;52.796;6.942;2023-06-04T07:23:03;16.50;99.90
52381;DHT22;38310;52.796;6.942;2023-06-04T07:25:28;16.70;99.90
52381;DHT22;38310;52.796;6.942;2023-06-04T07:27:54;16.80;99.90
52381;DHT22;38310;52.796;6.942;2023-06-04T07:30:24;17.00;99.90
52381;DHT22;38310;52.796;6.942;2023-06-04T07:32:50;17.10;99.90
52381;DHT22;38310;52.796;6.942;2023-06-04T07:35:16;17.20;99.90
52381;DHT22;38310;52.796;6.942;2023-06-04T07:37:42;17.20;99.90
52381;DHT22;38310;52.796;6.942;2023-06-04T07:40:11;17.50;99.90
52381;DHT22;38310;52.796;6.942;2023-06-04T07:42:37;17.50;99.90
52381;DHT22;38310;52.796;6.942;2023-06-04T07:45:03;17.70;99.90
52381;DHT22;38310;52.796;6.942;2023-06-04T07:47:29;17.80;99.90
52381;DHT22;38310;52.796;6.942;2023-06-04T07:49:55;17.90;99.90
52381;DHT22;38310;52.796;6.942;2023-06-04T07:52:20;18.10;99.90
52381;DHT22;38310;52.796;6.942;2023-06-04T07:54:46;18.40;99.90
52381;DHT22;38310;52.796;6.942;2023-06-04T07:57:12;18.50;99.90
52381;DHT22;38310;52.796;6.942;2023-06-04T07:59:38;18.60;99.90
52381;DHT22;38310;52.796;6.942;2023-06-04T08:02:04;18.70;99.90
52381;DHT22;38310;52.796;6.942;2023-06-04T08:04:30;18.80;99.90
52381;DHT22;38310;52.796;6.942;2023-06-04T08:06:56;18.90;99.90
52381;DHT22;38310;52.796;6.942;2023-06-04T08:09:22;18.90;99.90
52381;DHT22;38310;52.796;6.942;2023-06-04T08:11:48;19.20;99.90
52381;DHT22;38310;52.796;6.942;2023-06-04T08:14:14;19.30;99.90
52381;DHT22;38310;52.796;6.942;2023-06-04T08:16:40;19.40;99.90
52381;DHT22;38310;52.796;6.942;2023-06-04T08:19:06;19.60;99.90
52381;DHT22;38310;52.796;6.942;2023-06-04T08:21:33;19.50;99.90
52381;DHT22;38310;52.796;6.942;2023-06-04T08:23:59;19.50;99.90
52381;DHT22;38310;52.796;6.942;2023-06-04T08:26:25;19.80;99.90
52381;DHT22;38310;52.796;6.942;2023-06-04T08:28:52;19.90;99.90
52381;DHT22;38310;52.796;6.942;2023-06-04T08:31:18;20.20;99.90
52381;DHT22;38310;52.796;6.942;2023-06-04T08:33:47;20.40;99.90
52381;DHT22;38310;52.796;6.942;2023-06-04T08:36:14;20.60;99.90
52381;DHT22;38310;52.796;6.942;2023-06-04T08:38:40;20.80;99.90
52381;DHT22;38310;52.796;6.942;2023-06-04T08:41:15;20.80;99.90
52381;DHT22;38310;52.796;6.942;2023-06-04T08:43:42;21.00;99.90
52381;DHT22;38310;52.796;6.942;2023-06-04T08:46:11;21.10;99.90
52381;DHT22;38310;52.796;6.942;2023-06-04T08:48:38;21.20;99.90
52381;DHT22;38310;52.796;6.942;2023-06-04T08:51:06;21.20;99.90
52381;DHT22;38310;52.796;6.942;2023-06-04T08:53:34;21.50;99.90
52381;DHT22;38310;52.796;6.942;2023-06-04T08:56:00;21.60;99.90
52381;DHT22;38310;52.796;6.942;2023-06-04T08:58:31;21.80;99.90
52381;DHT22;38310;52.796;6.942;2023-06-04T09:00:57;21.80;99.90
52381;DHT22;38310;52.796;6.942;2023-06-04T09:03:23;22.10;99.90
52381;DHT22;38310;52.796;6.942;2023-06-04T09:05:52;22.00;99.90
52381;DHT22;38310;52.796;6.942;2023-06-04T09:08:19;22.20;99.90
52381;DHT22;38310;52.796;6.942;2023-06-04T09:10:47;22.20;99.90
52381;DHT22;38310;52.796;6.942;2023-06-04T09:13:18;22.30;99.90
52381;DHT22;38310;52.796;6.942;2023-06-04T09:15:44;22.30;99.90
52381;DHT22;38310;52.796;6.942;2023-06-04T09:18:11;22.50;99.90
52381;DHT22;38310;52.796;6.942;2023-06-04T09:20:37;22.40;99.90
52381;DHT22;38310;52.796;6.942;2023-06-04T09:23:13;22.70;99.90
52381;DHT22;38310;52.796;6.942;2023-06-04T09:25:42;22.70;99.90
52381;DHT22;38310;52.796;6.942;2023-06-04T09:28:09;23.10;99.90
52381;DHT22;38310;52.796;6.942;2023-06-04T09:30:35;23.20;99.90
52381;DHT22;38310;52.796;6.942;2023-06-04T09:33:08;23.00;99.80
52381;DHT22;38310;52.796;6.942;2023-06-04T09:35:33;23.10;99.30
52381;DHT22;38310;52.796;6.942;2023-06-04T09:37:59;23.40;99.90
52381;DHT22;38310;52.796;6.942;2023-06-04T09:40:35;23.60;99.90
52381;DHT22;38310;52.796;6.942;2023-06-04T09:43:01;23.70;99.00
52381;DHT22;38310;52.796;6.942;2023-06-04T09:45:28;23.80;99.40
52381;DHT22;38310;52.796;6.942;2023-06-04T09:47:54;23.70;98.30
52381;DHT22;38310;52.796;6.942;2023-06-04T09:50:26;24.00;98.40
52381;DHT22;38310;52.796;6.942;2023-06-04T09:52:53;24.10;97.60
52381;DHT22;38310;52.796;6.942;2023-06-04T09:55:19;24.40;98.70
52381;DHT22;38310;52.796;6.942;2023-06-04T09:57:48;24.50;97.60
52381;DHT22;38310;52.796;6.942;2023-06-04T10:00:19;24.70;97.30
52381;DHT22;38310;52.796;6.942;2023-06-04T10:02:46;24.70;96.00
52381;DHT22;38310;52.796;6.942;2023-06-04T10:05:14;24.60;96.60
52381;DHT22;38310;52.796;6.942;2023-06-04T10:07:44;24.60;96.90
52381;DHT22;38310;52.796;6.942;2023-06-04T10:10:19;24.90;96.50
52381;DHT22;38310;52.796;6.942;2023-06-04T10:12:50;25.00;96.50
52381;DHT22;38310;52.796;6.942;2023-06-04T10:15:20;25.30;95.90
52381;DHT22;38310;52.796;6.942;2023-06-04T10:17:47;24.90;95.60
52381;DHT22;38310;52.796;6.942;2023-06-04T10:20:14;24.80;94.10
52381;DHT22;38310;52.796;6.942;2023-06-04T10:22:40;24.90;93.50
52381;DHT22;38310;52.796;6.942;2023-06-04T10:25:07;25.00;93.80
52381;DHT22;38310;52.796;6.942;2023-06-04T10:27:34;24.90;92.50
52381;DHT22;38310;52.796;6.942;2023-06-04T10:30:04;24.90;93.10
52381;DHT22;38310;52.796;6.942;2023-06-04T10:32:30;25.00;92.30
52381;DHT22;38310;52.796;6.942;2023-06-04T10:34:56;25.30;92.90
52381;DHT22;38310;52.796;6.942;2023-06-04T10:37:26;25.30;92.50
52381;DHT22;38310;52.796;6.942;2023-06-04T10:39:53;25.40;92.30
52381;DHT22;38310;52.796;6.942;2023-06-04T10:42:19;25.50;92.40
52381;DHT22;38310;52.796;6.942;2023-06-04T10:44:48;25.90;93.20
52381;DHT22;38310;52.796;6.942;2023-06-04T10:47:21;25.70;92.10
52381;DHT22;38310;52.796;6.942;2023-06-04T10:49:47;25.90;91.50
52381;DHT22;38310;52.796;6.942;2023-06-04T10:52:13;25.90;91.80
52381;DHT22;38310;52.796;6.942;2023-06-04T10:54:39;25.80;91.20
52381;DHT22;38310;52.796;6.942;2023-06-04T10:57:15;26.00;91.70
52381;DHT22;38310;52.796;6.942;2023-06-04T10:59:54;26.10;91.60
52381;DHT22;38310;52.796;6.942;2023-06-04T11:02:20;26.20;91.80
52381;DHT22;38310;52.796;6.942;2023-06-04T11:04:46;26.40;91.70
52381;DHT22;38310;52.796;6.942;2023-06-04T11:07:12;26.50;91.10
52381;DHT22;38310;52.796;6.942;2023-06-04T11:09:48;26.60;90.90
52381;DHT22;38310;52.796;6.942;2023-06-04T11:12:14;26.90;90.80
52381;DHT22;38310;52.796;6.942;2023-06-04T11:14:40;26.80;90.90
52381;DHT22;38310;52.796;6.942;2023-06-04T11:17:10;26.70;90.90
52381;DHT22;38310;52.796;6.942;2023-06-04T11:19:37;26.50;89.00
52381;DHT22;38310;52.796;6.942;2023-06-04T11:22:04;26.90;90.30
52381;DHT22;38310;52.796;6.942;2023-06-04T11:24:31;26.20;90.40
52381;DHT22;38310;52.796;6.942;2023-06-04T11:26:58;26.70;90.10
52381;DHT22;38310;52.796;6.942;2023-06-04T11:29:28;26.80;89.80
52381;DHT22;38310;52.796;6.942;2023-06-04T11:31:54;27.00;90.60
52381;DHT22;38310;52.796;6.942;2023-06-04T11:34:24;27.30;90.30
52381;DHT22;38310;52.796;6.942;2023-06-04T11:36:50;27.20;87.90
52381;DHT22;38310;52.796;6.942;2023-06-04T11:39:18;27.40;89.70
52381;DHT22;38310;52.796;6.942;2023-06-04T11:41:44;27.30;88.80
52381;DHT22;38310;52.796;6.942;2023-06-04T11:44:11;27.30;89.30
52381;DHT22;38310;52.796;6.942;2023-06-04T11:46:41;27.50;89.10
52381;DHT22;38310;52.796;6.942;2023-06-04T11:49:13;27.50;88.40
52381;DHT22;38310;52.796;6.942;2023-06-04T11:51:49;27.60;87.60
52381;DHT22;38310;52.796;6.942;2023-06-04T11:54:16;27.70;86.00
52381;DHT22;38310;52.796;6.942;2023-06-04T11:56:43;27.70;85.40
52381;DHT22;38310;52.796;6.942;2023-06-04T11:59:18;27.90;87.00
52381;DHT22;38310;52.796;6.942;2023-06-04T12:01:45;27.40;84.00
52381;DHT22;38310;52.796;6.942;2023-06-04T12:04:16;27.60;84.40
52381;DHT22;38310;52.796;6.942;2023-06-04T12:06:55;27.90;85.00
52381;DHT22;38310;52.796;6.942;2023-06-04T12:09:30;27.90;82.40
52381;DHT22;38310;52.796;6.942;2023-06-04T12:12:05;27.90;83.90
52381;DHT22;38310;52.796;6.942;2023-06-04T12:14:31;28.30;85.80
52381;DHT22;38310;52.796;6.942;2023-06-04T12:17:02;28.20;84.00
52381;DHT22;38310;52.796;6.942;2023-06-04T12:19:30;28.20;82.40
52381;DHT22;38310;52.796;6.942;2023-06-04T12:22:05;28.50;83.40
52381;DHT22;38310;52.796;6.942;2023-06-04T12:24:32;28.70;82.80
52381;DHT22;38310;52.796;6.942;2023-06-04T12:27:02;28.70;82.30
52381;DHT22;38310;52.796;6.942;2023-06-04T12:29:28;28.80;82.30
52381;DHT22;38310;52.796;6.942;2023-06-04T12:32:02;28.90;81.40
52381;DHT22;38310;52.796;6.942;2023-06-04T12:34:40;28.50;78.60
52381;DHT22;38310;52.796;6.942;2023-06-04T12:37:07;28.80;80.00
52381;DHT22;38310;52.796;6.942;2023-06-04T12:39:34;28.80;80.50
52381;DHT22;38310;52.796;6.942;2023-06-04T12:42:05;29.10;79.70
52381;DHT22;38310;52.796;6.942;2023-06-04T12:44:31;28.90;79.50
52381;DHT22;38310;52.796;6.942;2023-06-04T12:46:56;28.90;79.30
52381;DHT22;38310;52.796;6.942;2023-06-04T12:49:22;29.00;78.50
52381;DHT22;38310;52.796;6.942;2023-06-04T12:51:48;28.50;78.80
52381;DHT22;38310;52.796;6.942;2023-06-04T12:54:13;28.80;79.40
52381;DHT22;38310;52.796;6.942;2023-06-04T12:56:40;29.00;78.20
52381;DHT22;38310;52.796;6.942;2023-06-04T12:59:09;28.90;77.10
52381;DHT22;38310;52.796;6.942;2023-06-04T13:01:35;28.60;76.00
52381;DHT22;38310;52.796;6.942;2023-06-04T13:04:00;28.80;77.30
52381;DHT22;38310;52.796;6.942;2023-06-04T13:06:26;28.80;76.60
52381;DHT22;38310;52.796;6.942;2023-06-04T13:08:52;29.00;77.30
52381;DHT22;38310;52.796;6.942;2023-06-04T13:11:18;29.00;77.30
52381;DHT22;38310;52.796;6.942;2023-06-04T13:13:44;29.00;77.60
52381;DHT22;38310;52.796;6.942;2023-06-04T13:16:10;28.80;76.50
52381;DHT22;38310;52.796;6.942;2023-06-04T13:18:36;28.40;74.40
52381;DHT22;38310;52.796;6.942;2023-06-04T13:21:02;28.80;76.10
52381;DHT22;38310;52.796;6.942;2023-06-04T13:23:27;29.10;76.00
52381;DHT22;38310;52.796;6.942;2023-06-04T13:25:53;29.00;76.60
52381;DHT22;38310;52.796;6.942;2023-06-04T13:28:19;29.30;77.50
52381;DHT22;38310;52.796;6.942;2023-06-04T13:30:45;29.30;75.90
52381;DHT22;38310;52.796;6.942;2023-06-04T13:33:11;29.30;77.20
52381;DHT22;38310;52.796;6.942;2023-06-04T13:35:37;29.10;75.60
52381;DHT22;38310;52.796;6.942;2023-06-04T13:38:06;29.20;76.20
52381;DHT22;38310;52.796;6.942;2023-06-04T13:40:34;29.20;75.80
52381;DHT22;38310;52.796;6.942;2023-06-04T13:43:00;29.10;74.60
52381;DHT22;38310;52.796;6.942;2023-06-04T13:45:25;28.70;74.90
52381;DHT22;38310;52.796;6.942;2023-06-04T13:47:51;28.80;76.10
52381;DHT22;38310;52.796;6.942;2023-06-04T13:50:17;28.00;74.20
52381;DHT22;38310;52.796;6.942;2023-06-04T13:52:43;28.50;75.50
52381;DHT22;38310;52.796;6.942;2023-06-04T13:55:09;28.50;75.70
52381;DHT22;38310;52.796;6.942;2023-06-04T13:57:34;28.60;75.00
52381;DHT22;38310;52.796;6.942;2023-06-04T14:00:00;28.80;75.70
52381;DHT22;38310;52.796;6.942;2023-06-04T14:02:26;28.70;75.30
52381;DHT22;38310;52.796;6.942;2023-06-04T14:04:53;28.60;75.30
52381;DHT22;38310;52.796;6.942;2023-06-04T14:07:20;28.20;74.60
52381;DHT22;38310;52.796;6.942;2023-06-04T14:09:45;28.40;75.50
52381;DHT22;38310;52.796;6.942;2023-06-04T14:12:11;28.50;76.00
52381;DHT22;38310;52.796;6.942;2023-06-04T14:14:38;28.50;74.80
52381;DHT22;38310;52.796;6.942;2023-06-04T14:17:05;28.40;75.20
52381;DHT22;38310;52.796;6.942;2023-06-04T14:19:34;28.50;75.90
52381;DHT22;38310;52.796;6.942;2023-06-04T14:22:01;28.50;75.10
52381;DHT22;38310;52.796;6.942;2023-06-04T14:24:27;28.30;74.70
52381;DHT22;38310;52.796;6.942;2023-06-04T14:26:52;28.50;75.40
52381;DHT22;38310;52.796;6.942;2023-06-04T14:29:18;28.40;75.60
52381;DHT22;38310;52.796;6.942;2023-06-04T14:31:45;28.40;75.80
52381;DHT22;38310;52.796;6.942;2023-06-04T14:34:11;28.20;75.80
52381;DHT22;38310;52.796;6.942;2023-06-04T14:36:37;28.30;76.40
52381;DHT22;38310;52.796;6.942;2023-06-04T14:39:02;28.10;76.00
52381;DHT22;38310;52.796;6.942;2023-06-04T14:41:28;28.10;76.40
52381;DHT22;38310;52.796;6.942;2023-06-04T14:43:54;28.10;76.50
52381;DHT22;38310;52.796;6.942;2023-06-04T14:46:20;27.90;76.80
52381;DHT22;38310;52.796;6.942;2023-06-04T14:48:45;27.40;75.70
52381;DHT22;38310;52.796;6.942;2023-06-04T14:51:11;26.60;75.20
52381;DHT22;38310;52.796;6.942;2023-06-04T14:53:37;27.00;75.90
52381;DHT22;38310;52.796;6.942;2023-06-04T14:56:07;27.20;77.30
52381;DHT22;38310;52.796;6.942;2023-06-04T14:58:33;27.00;77.20
52381;DHT22;38310;52.796;6.942;2023-06-04T15:01:00;27.00;77.10
52381;DHT22;38310;52.796;6.942;2023-06-04T15:03:29;26.80;77.60
52381;DHT22;38310;52.796;6.942;2023-06-04T15:05:55;27.00;77.60
52381;DHT22;38310;52.796;6.942;2023-06-04T15:08:21;26.90;77.80
52381;DHT22;38310;52.796;6.942;2023-06-04T15:10:47;26.70;77.40
52381;DHT22;38310;52.796;6.942;2023-06-04T15:13:13;26.60;78.10
52381;DHT22;38310;52.796;6.942;2023-06-04T15:15:38;26.40;78.10
52381;DHT22;38310;52.796;6.942;2023-06-04T15:18:04;26.40;78.50
52381;DHT22;38310;52.796;6.942;2023-06-04T15:20:32;26.20;78.60
52381;DHT22;38310;52.796;6.942;2023-06-04T15:22:58;26.20;79.20
52381;DHT22;38310;52.796;6.942;2023-06-04T15:25:24;26.00;79.80
52381;DHT22;38310;52.796;6.942;2023-06-04T15:27:50;25.90;80.50
52381;DHT22;38310;52.796;6.942;2023-06-04T15:30:15;25.80;80.20
52381;DHT22;38310;52.796;6.942;2023-06-04T15:32:43;25.60;80.30
52381;DHT22;38310;52.796;6.942;2023-06-04T15:35:10;25.60;81.20
52381;DHT22;38310;52.796;6.942;2023-06-04T15:37:36;25.50;82.40